Time;durP1;ratioP1;P1;durP2;ratioP2;P2;SDS_P1;SDS_P2;PMS_P1;PMS_P2;Temp;Humidity;BMP_temperature;BMP_pressure;BME280_temperature;BME280_humidity;BME280_pressure;Samples;Min_cycle;Max_cycle;Signal;HPM_P1;HPM_P2
2023/05/12 00:01:45;;;;;;;2.83;1.85;;;;;;;16.13;58.09;99599.56;4497337;31;33659;-62
2023/05/12 00:04:12;;;;;;;5.53;1.80;;;;;;;16.14;58.04;99599.41;4498312;31;32727;-62
2023/05/12 00:06:41;;;;;;;1.62;1.08;;;;;;;16.02;58.51;99590.69;4488940;31;33095;-63
2023/05/12 00:09:08;;;;;;;2.40;1.23;;;;;;;15.94;58.89;99596.00;4491596;31;33485;-62
2023/05/12 00:11:36;;;;;;;3.00;2.28;;;;;;;15.92;59.29;99589.06;4492391;31;33945;-64
2023/05/12 00:14:05;;;;;;;2.83;1.62;;;;;;;15.70;60.12;99584.97;4498000;31;34320;-64
2023/05/12 00:16:33;;;;;;;4.37;2.12;;;;;;;15.77;60.19;99580.66;4487692;31;33030;-64
2023/05/12 00:19:01;;;;;;;3.40;1.87;;;;;;;15.64;60.70;99588.22;4495201;31;34820;-62
2023/05/12 00:21:28;;;;;;;3.42;1.73;;;;;;;15.84;60.11;99579.03;4493043;31;34098;-62
2023/05/12 00:23:55;;;;;;;3.03;1.23;;;;;;;15.76;60.67;99581.63;4493001;31;34451;-63
2023/05/12 00:26:23;;;;;;;2.78;1.62;;;;;;;15.85;60.40;99580.72;4492668;31;33463;-63
2023/05/12 00:28:51;;;;;;;3.72;1.52;;;;;;;15.97;60.32;99581.34;4494284;31;33941;-65
2023/05/12 00:31:19;;;;;;;2.78;1.67;;;;;;;16.27;59.33;99578.25;4493656;31;33850;-62
2023/05/12 00:33:47;;;;;;;2.55;1.65;;;;;;;16.20;59.68;99568.25;4491397;31;33380;-64
2023/05/12 00:36:14;;;;;;;4.65;1.75;;;;;;;16.42;59.04;99570.47;4495894;31;33707;-66
2023/05/12 00:38:42;;;;;;;1.77;1.23;;;;;;;16.42;59.02;99570.47;4484851;31;33594;-62
2023/05/12 00:41:09;;;;;;;2.92;1.80;;;;;;;16.13;59.79;99570.72;4493697;31;33876;-62
2023/05/12 00:43:37;;;;;;;3.30;2.08;;;;;;;15.93;60.27;99571.88;4491703;31;34537;-61
2023/05/12 00:46:05;;;;;;;8.07;1.52;;;;;;;15.64;60.88;99574.75;4494110;31;32736;-63
2023/05/12 00:48:33;;;;;;;2.00;1.23;;;;;;;15.57;61.13;99567.25;4479554;31;32372;-63
2023/05/12 00:51:01;;;;;;;2.65;1.45;;;;;;;15.60;61.37;99563.38;4490425;31;34016;-65
2023/05/12 00:53:30;;;;;;;2.80;1.25;;;;;;;15.60;61.12;99566.94;4493529;31;33527;-63
2023/05/12 00:56:17;;;;;;;2.95;1.27;;;;;;;15.45;62.14;99568.44;4490445;31;32492;-64
2023/05/12 00:58:45;;;;;;;15.30;2.00;;;;;;;15.75;61.14;99563.75;4495188;31;32989;-65
2023/05/12 01:01:14;;;;;;;0.88;0.75;;;;;;;15.60;61.74;99563.38;4491010;31;35228;-63
2023/05/12 01:03:42;;;;;;;2.42;1.37;;;;;;;15.63;61.23;99554.97;4493041;31;34705;-63
2023/05/12 01:06:36;;;;;;;3.50;2.05;;;;;;;15.64;60.97;99556.69;4493849;31;33197;-63
2023/05/12 01:09:04;;;;;;;2.87;1.42;;;;;;;15.63;60.93;99560.38;4463033;31;33325;-64
2023/05/12 01:11:32;;;;;;;4.00;1.60;;;;;;;15.47;61.46;99555.62;4492633;31;33258;-62
2023/05/12 01:13:59;;;;;;;5.70;2.60;;;;;;;15.38;61.60;99559.25;4498003;31;34585;-63
2023/05/12 01:16:35;;;;;;;5.00;2.15;;;;;;;15.48;61.67;99564.59;4496008;31;34130;-63
2023/05/12 01:19:06;;;;;;;4.00;2.00;;;;;;;15.71;61.06;99560.50;4500379;31;37569;-63
2023/05/12 01:21:34;;;;;;;3.22;2.08;;;;;;;15.72;61.09;99561.34;4495855;31;33859;-62
2023/05/12 01:24:06;;;;;;;2.37;1.75;;;;;;;15.66;61.31;99570.03;4492874;31;32567;-63
2023/05/12 01:26:34;;;;;;;3.53;2.25;;;;;;;15.76;60.92;99570.84;4485704;31;32492;-63
2023/05/12 01:29:03;;;;;;;2.58;1.90;;;;;;;15.95;60.38;99572.56;4493237;31;33838;-62
2023/05/12 01:31:31;;;;;;;3.08;1.45;;;;;;;15.80;60.79;99567.69;4493280;31;35227;-64
2023/05/12 01:33:58;;;;;;;2.42;1.45;;;;;;;15.87;60.66;99562.53;4487744;31;33768;-63
2023/05/12 01:36:26;;;;;;;3.62;1.70;;;;;;;15.89;60.31;99563.25;4498254;31;34168;-63
2023/05/12 01:38:54;;;;;;;1.67;1.10;;;;;;;15.50;61.55;99563.44;4495357;31;34530;-62
2023/05/12 01:41:21;;;;;;;2.40;1.33;;;;;;;15.34;62.34;99563.25;4495854;31;35052;-62
2023/05/12 01:43:49;;;;;;;2.55;1.98;;;;;;;15.70;61.19;99572.31;4491586;31;33416;-63
2023/05/12 01:46:17;;;;;;;2.92;2.03;;;;;;;15.52;61.82;99571.38;4498408;31;35033;-62
2023/05/12 01:48:45;;;;;;;2.80;1.67;;;;;;;15.71;61.21;99571.31;4499457;31;33754;-63
2023/05/12 01:51:13;;;;;;;2.47;1.52;;;;;;;15.59;61.71;99575.19;4501069;31;34088;-62
2023/05/12 01:53:41;;;;;;;2.65;1.77;;;;;;;15.72;61.16;99570.28;4492596;31;34931;-64
2023/05/12 01:56:08;;;;;;;1.48;1.20;;;;;;;15.57;61.88;99580.75;4497042;31;34267;-63
2023/05/12 01:58:36;;;;;;;1.95;1.25;;;;;;;15.65;61.52;99577.28;4496912;31;33233;-62
2023/05/12 02:01:04;;;;;;;1.80;1.33;;;;;;;15.21;62.73;99581.59;4499311;31;34052;-64
2023/05/12 02:03:32;;;;;;;1.90;1.25;;;;;;;15.09;62.97;99587.19;4498090;31;34106;-63
2023/05/12 02:06:00;;;;;;;2.00;1.33;;;;;;;14.74;64.58;99587.03;4492796;31;33183;-64
2023/05/12 02:08:28;;;;;;;2.92;2.15;;;;;;;14.73;64.99;99577.22;4491655;31;32744;-63
2023/05/12 02:11:07;;;;;;;3.53;1.58;;;;;;;14.83;64.49;99578.03;4494755;31;34821;-61
2023/05/12 02:13:35;;;;;;;2.47;1.33;;;;;;;14.97;64.19;99588.38;4494860;31;34847;-62
2023/05/12 02:16:04;;;;;;;5.95;2.53;;;;;;;14.87;64.72;99579.47;4499208;31;33605;-63
2023/05/12 02:18:31;;;;;;;3.08;1.75;;;;;;;14.60;65.39;99589.16;4497380;31;33548;-62
2023/05/12 02:20:59;;;;;;;3.72;1.58;;;;;;;14.88;64.73;99581.16;4498230;31;35214;-62
2023/05/12 02:23:28;;;;;;;3.22;1.42;;;;;;;15.07;64.48;99589.19;4493374;31;32654;-63
2023/05/12 02:25:56;;;;;;;1.95;1.30;;;;;;;15.29;63.38;99590.66;4492529;31;33183;-65
2023/05/12 02:28:23;;;;;;;3.90;2.12;;;;;;;14.75;65.30;99584.16;4494503;31;37295;-63
2023/05/12 02:30:53;;;;;;;2.53;1.40;;;;;;;14.62;65.72;99600.62;4494590;31;34153;-65
2023/05/12 02:33:21;;;;;;;0.57;0.57;;;;;;;14.84;65.16;99590.53;4495966;31;33698;-66
2023/05/12 02:35:49;;;;;;;1.75;1.25;;;;;;;15.03;64.45;99597.72;4491966;31;34449;-66
2023/05/12 02:38:17;;;;;;;4.95;1.90;;;;;;;14.78;65.29;99591.97;4494146;31;34889;-63
2023/05/12 02:40:45;;;;;;;1.98;1.55;;;;;;;14.65;65.96;99589.56;4484580;31;33786;-63
2023/05/12 02:43:13;;;;;;;1.12;0.85;;;;;;;14.51;66.48;99592.72;4496648;31;33734;-64
2023/05/12 02:45:41;;;;;;;4.03;0.93;;;;;;;14.17;67.85;99593.12;4488303;31;34695;-64
2023/05/12 02:48:09;;;;;;;1.85;1.35;;;;;;;14.25;67.61;99587.03;4492668;31;33990;-64
2023/05/12 02:50:36;;;;;;;1.55;0.82;;;;;;;14.44;67.16;99592.44;4489380;31;34097;-62
2023/05/12 02:53:04;;;;;;;1.92;0.98;;;;;;;14.40;67.48;99590.16;4494582;31;32526;-63
2023/05/12 02:55:32;;;;;;;3.05;1.92;;;;;;;14.47;67.20;99591.25;4492839;31;33339;-68
2023/05/12 02:58:00;;;;;;;3.10;1.95;;;;;;;14.11;68.50;99591.00;4494525;31;35040;-62
2023/05/12 03:00:27;;;;;;;4.12;3.10;;;;;;;14.26;68.43;99588.75;4482807;31;33813;-62
2023/05/12 03:02:55;;;;;;;1.85;1.25;;;;;;;14.39;67.86;99591.16;4495437;31;35001;-61
2023/05/12 03:05:23;;;;;;;2.17;1.65;;;;;;;14.43;67.82;99592.56;4494219;31;33414;-62
2023/05/12 03:07:50;;;;;;;2.85;1.65;;;;;;;14.22;68.77;99595.38;4489326;31;33784;-64
2023/05/12 03:10:18;;;;;;;0.85;0.80;;;;;;;14.39;67.85;99593.84;4485304;31;34035;-65
2023/05/12 03:12:46;;;;;;;2.37;1.50;;;;;;;14.10;68.96;99594.69;4490841;31;34661;-63
2023/05/12 03:15:13;;;;;;;2.85;1.42;;;;;;;14.11;69.20;99599.06;4494177;31;34209;-65
2023/05/12 03:17:41;;;;;;;7.07;3.15;;;;;;;14.14;69.30;99593.41;4492868;31;33476;-63
2023/05/12 03:20:09;;;;;;;1.65;1.12;;;;;;;14.20;69.26;99586.62;4496806;31;33670;-64
2023/05/12 03:22:37;;;;;;;1.65;1.33;;;;;;;14.17;69.19;99593.12;4489337;31;33733;-64
2023/05/12 03:25:05;;;;;;;2.30;1.40;;;;;;;14.02;70.13;99591.84;4493358;31;34467;-63
2023/05/12 03:27:33;;;;;;;2.50;1.45;;;;;;;13.66;71.50;99590.66;4487662;31;33811;-63
2023/05/12 03:30:01;;;;;;;2.53;1.80;;;;;;;13.74;71.08;99586.28;4493473;31;33720;-64
2023/05/12 03:32:29;;;;;;;2.70;1.50;;;;;;;13.97;70.09;99594.97;4482054;31;33354;-63
2023/05/12 03:34:57;;;;;;;3.72;2.37;;;;;;;13.93;70.18;99590.84;4492476;31;32085;-63
2023/05/12 03:37:25;;;;;;;1.95;1.15;;;;;;;13.93;70.14;99598.06;4496460;31;34312;-63
2023/05/12 03:39:54;;;;;;;2.72;1.77;;;;;;;13.57;71.33;99597.69;4495675;31;33213;-62
2023/05/12 03:42:23;;;;;;;10.05;2.15;;;;;;;13.47;71.80;99597.69;4495876;31;34038;-62
2023/05/12 03:44:51;;;;;;;5.40;2.55;;;;;;;13.55;72.09;99598.81;4492398;31;33296;-63
2023/05/12 03:47:18;;;;;;;3.12;1.67;;;;;;;13.86;70.81;99599.59;4488012;31;32063;-63
2023/05/12 03:49:46;;;;;;;1.77;1.23;;;;;;;13.49;72.00;99605.63;4491882;31;34917;-65
2023/05/12 03:52:13;;;;;;;4.12;1.37;;;;;;;13.63;71.65;99607.06;4497551;31;34890;-63
2023/05/12 03:54:41;;;;;;;7.03;3.22;;;;;;;13.26;72.71;99600.44;4490632;31;31923;-63
2023/05/12 03:57:08;;;;;;;1.05;0.95;;;;;;;13.19;73.45;99596.56;4491952;31;35571;-63
2023/05/12 03:59:36;;;;;;;1.77;1.33;;;;;;;13.56;72.23;99608.62;4494562;31;34016;-62
2023/05/12 04:02:06;;;;;;;2.00;1.42;;;;;;;12.79;74.87;99607.25;4494087;31;33997;-63
2023/05/12 04:04:34;;;;;;;2.47;1.55;;;;;;;13.57;72.67;99611.16;4490639;31;31936;-63
2023/05/12 04:07:01;;;;;;;2.40;1.15;;;;;;;13.74;71.61;99612.34;4495039;31;32957;-65
2023/05/12 04:09:32;;;;;;;2.20;1.77;;;;;;;13.49;72.54;99605.63;4494129;31;35274;-64
2023/05/12 04:12:00;;;;;;;3.28;1.73;;;;;;;13.18;74.12;99610.13;4491683;31;34836;-62
2023/05/12 04:14:28;;;;;;;1.98;1.30;;;;;;;13.44;73.25;99615.91;4495441;31;31934;-64
2023/05/12 04:17:10;;;;;;;3.00;1.58;;;;;;;13.14;74.03;99604.16;4487790;31;33870;-63
2023/05/12 04:19:37;;;;;;;4.60;2.12;;;;;;;13.11;74.51;99617.03;4494990;31;33804;-63
2023/05/12 04:22:05;;;;;;;6.35;2.80;;;;;;;13.46;73.24;99616.66;4492743;31;34636;-63
2023/05/12 04:24:32;;;;;;;5.07;2.35;;;;;;;13.20;74.60;99617.06;4495507;31;33264;-64
2023/05/12 04:27:00;;;;;;;2.10;1.15;;;;;;;13.07;75.06;99619.13;4491170;31;33634;-62
2023/05/12 04:29:28;;;;;;;2.22;1.80;;;;;;;13.13;74.81;99625.78;4493105;31;35552;-63
2023/05/12 04:31:56;;;;;;;2.53;1.85;;;;;;;13.31;74.39;99623.38;4492085;31;33672;-62
2023/05/12 04:34:24;;;;;;;4.65;2.25;;;;;;;13.36;74.01;99627.37;4489107;31;33171;-62
2023/05/12 04:36:51;;;;;;;3.55;2.17;;;;;;;13.02;75.62;99624.03;4490857;31;33725;-62
2023/05/12 04:39:20;;;;;;;10.82;2.05;;;;;;;13.05;75.82;99627.31;4488760;31;34270;-61
2023/05/12 04:41:47;;;;;;;1.48;1.12;;;;;;;13.26;74.90;99623.78;4492519;31;33675;-62
2023/05/12 04:44:15;;;;;;;2.92;1.80;;;;;;;13.20;74.95;99619.75;4492134;31;32337;-63
2023/05/12 04:46:43;;;;;;;1.40;1.15;;;;;;;12.94;76.35;99623.88;4495181;31;34976;-62
2023/05/12 04:49:10;;;;;;;2.75;1.92;;;;;;;13.21;74.78;99620.59;4495091;31;35340;-62
2023/05/12 04:51:43;;;;;;;1.55;1.20;;;;;;;13.06;75.51;99617.41;4493058;31;35015;-64
2023/05/12 04:54:10;;;;;;;2.87;2.45;;;;;;;13.26;75.12;99615.72;4495484;31;33607;-63
2023/05/12 04:56:38;;;;;;;3.15;1.58;;;;;;;13.25;75.00;99622.06;4493891;31;34891;-62
2023/05/12 04:59:06;;;;;;;3.03;2.28;;;;;;;13.27;74.94;99620.94;4498335;31;35063;-63
2023/05/12 05:01:34;;;;;;;4.68;2.35;;;;;;;13.15;75.43;99630.06;4491328;31;33760;-63
2023/05/12 05:04:02;;;;;;;1.83;1.30;;;;;;;13.30;75.30;99627.06;4491359;31;33465;-63
2023/05/12 05:06:29;;;;;;;6.40;2.03;;;;;;;13.42;74.75;99632.19;4484325;31;33707;-63
2023/05/12 05:08:57;;;;;;;2.65;2.05;;;;;;;13.50;74.05;99634.19;4487646;31;35077;-63
2023/05/12 05:11:25;;;;;;;7.12;1.62;;;;;;;13.50;74.62;99628.81;4495429;31;33449;-63
2023/05/12 05:13:53;;;;;;;1.10;1.00;;;;;;;13.74;73.30;99629.34;4496920;31;33640;-63
2023/05/12 05:16:20;;;;;;;3.17;1.90;;;;;;;13.33;74.72;99632.16;4495901;31;34893;-62
2023/05/12 05:18:49;;;;;;;2.12;1.40;;;;;;;13.36;74.70;99626.53;4497708;31;33678;-63
2023/05/12 05:21:16;;;;;;;2.90;2.25;;;;;;;13.39;74.64;99627.09;4494305;31;33700;-64
2023/05/12 05:23:44;;;;;;;1.87;1.50;;;;;;;13.62;73.97;99640.34;4495830;31;33578;-63
2023/05/12 05:26:12;;;;;;;1.05;1.02;;;;;;;13.77;73.73;99630.88;4493691;31;35381;-63
2023/05/12 05:28:39;;;;;;;5.22;1.87;;;;;;;13.14;75.70;99632.88;4490597;31;33894;-64
2023/05/12 05:31:07;;;;;;;4.22;2.05;;;;;;;13.54;73.95;99638.31;4498329;31;34251;-63
2023/05/12 05:33:35;;;;;;;3.85;1.40;;;;;;;13.52;74.36;99638.47;4494653;31;33541;-64
2023/05/12 05:36:03;;;;;;;2.20;1.52;;;;;;;13.73;73.38;99638.38;4495097;31;33848;-62
2023/05/12 05:38:31;;;;;;;2.92;1.80;;;;;;;13.68;73.50;99640.63;4497004;31;34112;-63
2023/05/12 05:40:58;;;;;;;3.85;2.10;;;;;;;13.63;73.72;99633.97;4498549;31;33554;-63
2023/05/12 05:43:28;;;;;;;3.80;2.28;;;;;;;13.69;73.30;99644.16;4494765;31;33238;-63
2023/05/12 05:45:57;;;;;;;13.52;1.58;;;;;;;13.77;73.54;99643.47;4495883;31;33781;-63
2023/05/12 05:48:24;;;;;;;1.27;0.98;;;;;;;13.85;72.89;99647.19;4496856;31;34035;-63
2023/05/12 05:50:52;;;;;;;3.40;1.70;;;;;;;13.81;73.30;99647.62;4492742;31;33820;-62
2023/05/12 05:53:21;;;;;;;3.40;2.03;;;;;;;13.68;73.31;99646.00;4489747;31;34482;-64
2023/05/12 05:55:49;;;;;;;2.72;2.00;;;;;;;13.83;73.21;99648.31;4490256;31;34931;-62
2023/05/12 05:58:17;;;;;;;3.72;1.95;;;;;;;13.79;72.55;99653.13;4494960;31;35121;-64
2023/05/12 06:00:45;;;;;;;3.45;1.83;;;;;;;13.39;74.25;99659.34;4495103;31;33746;-62
2023/05/12 06:03:13;;;;;;;2.80;1.52;;;;;;;13.78;73.37;99653.25;4486355;31;33449;-64
2023/05/12 06:05:42;;;;;;;2.30;1.55;;;;;;;13.47;72.71;99643.37;4493483;31;34624;-66
2023/05/12 06:08:12;;;;;;;1.30;1.20;;;;;;;13.50;73.49;99669.16;4499585;31;33535;-65
2023/05/12 06:10:40;;;;;;;3.95;1.20;;;;;;;13.64;73.23;99657.16;4497754;31;33571;-62
2023/05/12 06:13:07;;;;;;;1.77;1.33;;;;;;;13.63;73.54;99660.84;4497839;31;34177;-63
2023/05/12 06:15:35;;;;;;;4.47;1.70;;;;;;;13.95;72.20;99661.50;4485957;31;33724;-61
2023/05/12 06:18:03;;;;;;;3.85;1.67;;;;;;;13.66;73.37;99669.50;4487327;31;33842;-61
2023/05/12 06:20:31;;;;;;;2.37;1.95;;;;;;;13.78;72.27;99670.25;4488879;31;34719;-63
2023/05/12 06:22:58;;;;;;;1.30;1.02;;;;;;;13.44;73.08;99667.84;4492580;31;31930;-63
2023/05/12 06:25:26;;;;;;;3.45;2.35;;;;;;;13.60;72.78;99659.28;4498462;31;34287;-62
2023/05/12 06:27:54;;;;;;;3.00;1.75;;;;;;;13.90;72.18;99666.47;4494740;31;32668;-63
2023/05/12 06:30:22;;;;;;;1.75;1.30;;;;;;;13.87;72.50;99673.97;4493665;31;32429;-62
2023/05/12 06:32:54;;;;;;;4.57;2.85;;;;;;;13.74;71.87;99658.91;4493259;31;33242;-62
2023/05/12 06:35:21;;;;;;;3.95;2.17;;;;;;;13.82;71.94;99666.28;4496978;31;33625;-61
2023/05/12 06:37:49;;;;;;;5.25;2.45;;;;;;;13.94;72.02;99657.13;4494882;31;33690;-63
2023/05/12 06:40:17;;;;;;;5.25;3.78;;;;;;;13.87;72.17;99655.12;4496775;31;33390;-62
2023/05/12 06:42:44;;;;;;;3.35;2.12;;;;;;;13.88;71.73;99662.22;4495812;31;32265;-63
2023/05/12 06:45:16;;;;;;;5.93;3.05;;;;;;;13.79;71.56;99660.34;4496741;31;34013;-62
2023/05/12 06:47:43;;;;;;;4.85;3.47;;;;;;;13.79;72.11;99663.88;4495237;31;33811;-63
2023/05/12 06:50:11;;;;;;;3.50;2.15;;;;;;;13.71;72.94;99669.09;4489990;31;33476;-63
2023/05/12 06:52:39;;;;;;;6.07;2.83;;;;;;;13.81;72.78;99658.37;4491518;31;33502;-62
2023/05/12 06:55:07;;;;;;;7.30;4.45;;;;;;;13.72;72.89;99655.50;4490747;31;33572;-62
2023/05/12 06:57:34;;;;;;;5.90;3.05;;;;;;;13.69;72.83;99658.47;4493355;31;34897;-63
2023/05/12 07:00:03;;;;;;;14.68;8.00;;;;;;;13.96;72.17;99659.66;4491138;31;33830;-63
2023/05/12 07:02:31;;;;;;;6.50;3.53;;;;;;;14.09;71.70;99660.28;4494618;31;34471;-62
2023/05/12 07:04:58;;;;;;;9.80;3.92;;;;;;;14.04;71.27;99664.38;4496133;31;32679;-63
2023/05/12 07:07:26;;;;;;;9.63;4.00;;;;;;;14.04;72.12;99667.06;4494456;31;33894;-62
2023/05/12 07:09:54;;;;;;;4.35;2.90;;;;;;;14.20;71.29;99665.53;4495831;31;32618;-63
2023/05/12 07:12:21;;;;;;;6.18;3.83;;;;;;;14.33;71.14;99664.41;4497094;31;33812;-62
2023/05/12 07:14:49;;;;;;;6.22;3.70;;;;;;;14.22;71.44;99670.75;4490784;31;33235;-63
2023/05/12 07:17:16;;;;;;;3.70;2.70;;;;;;;14.37;71.38;99660.44;4489013;31;34024;-62
2023/05/12 07:19:44;;;;;;;4.20;3.30;;;;;;;14.61;70.06;99652.81;4499663;31;33739;-62
2023/05/12 07:22:12;;;;;;;3.87;2.80;;;;;;;14.60;70.02;99661.88;4497069;31;34155;-61
2023/05/12 07:24:40;;;;;;;4.55;2.90;;;;;;;14.20;71.53;99667.38;4485120;31;33715;-61
2023/05/12 07:27:07;;;;;;;4.20;2.80;;;;;;;14.52;70.56;99667.13;4485762;31;34045;-62
2023/05/12 07:29:36;;;;;;;4.05;2.25;;;;;;;13.96;72.75;99665.91;4496107;31;33904;-62
2023/05/12 07:32:03;;;;;;;7.93;3.30;;;;;;;14.37;70.93;99672.03;4496818;31;33986;-63
2023/05/12 07:34:32;;;;;;;3.65;2.50;;;;;;;14.36;71.34;99669.50;4485376;31;34813;-62
2023/05/12 07:37:01;;;;;;;2.72;2.28;;;;;;;14.34;70.99;99674.16;4494349;31;35105;-61
2023/05/12 07:39:31;;;;;;;5.90;3.10;;;;;;;14.24;71.97;99673.31;4489656;31;34668;-62
2023/05/12 07:41:58;;;;;;;7.12;3.12;;;;;;;14.33;71.44;99659.03;4491224;31;33606;-63
2023/05/12 07:44:27;;;;;;;3.92;2.30;;;;;;;14.11;71.41;99666.34;4496863;31;33432;-62
2023/05/12 07:46:54;;;;;;;5.72;3.05;;;;;;;14.51;70.29;99669.97;4492904;31;33955;-61
2023/05/12 07:49:22;;;;;;;2.87;2.50;;;;;;;14.25;71.79;99678.53;4494605;31;35391;-62
2023/05/12 07:51:49;;;;;;;5.82;2.65;;;;;;;14.47;70.72;99677.44;4494918;31;33975;-61
2023/05/12 07:54:17;;;;;;;3.42;2.17;;;;;;;14.50;70.83;99671.78;4487368;31;33679;-63
2023/05/12 07:56:44;;;;;;;2.42;1.95;;;;;;;14.36;70.97;99670.34;4488521;31;34991;-61
2023/05/12 07:59:13;;;;;;;6.47;2.97;;;;;;;14.67;70.71;99675.66;4497259;31;34069;-62
2023/05/12 08:01:40;;;;;;;3.67;2.22;;;;;;;14.78;68.99;99666.56;4489843;31;33304;-61
2023/05/12 08:04:08;;;;;;;8.60;2.78;;;;;;;14.68;69.10;99669.25;4484248;31;33704;-63
2023/05/12 08:06:36;;;;;;;5.03;3.10;;;;;;;14.44;69.04;99670.50;4494420;31;33132;-63
2023/05/12 08:09:03;;;;;;;7.37;3.10;;;;;;;14.24;70.60;99679.53;4486991;31;34072;-63
2023/05/12 08:11:31;;;;;;;4.78;3.20;;;;;;;14.33;69.71;99675.19;4492597;31;33143;-64
2023/05/12 08:13:59;;;;;;;5.53;2.67;;;;;;;14.66;69.34;99688.25;4489221;31;33913;-62
2023/05/12 08:16:26;;;;;;;3.50;2.45;;;;;;;14.41;69.65;99675.31;4499801;31;33666;-62
2023/05/12 08:18:54;;;;;;;3.95;2.58;;;;;;;14.46;69.83;99683.81;4489639;31;35225;-64
2023/05/12 08:21:21;;;;;;;20.65;2.58;;;;;;;14.83;69.27;99685.81;4490882;31;33630;-62
2023/05/12 08:23:49;;;;;;;3.22;2.15;;;;;;;14.98;67.99;99691.62;4492582;31;34035;-64
2023/05/12 08:26:17;;;;;;;3.67;2.78;;;;;;;15.09;68.12;99680.69;4499557;31;35618;-63
2023/05/12 08:28:44;;;;;;;7.68;3.47;;;;;;;14.93;68.64;99684.00;4490419;31;34588;-64
2023/05/12 08:31:12;;;;;;;7.35;3.75;;;;;;;14.62;68.67;99686.00;4494741;31;33415;-63
2023/05/12 08:33:40;;;;;;;6.03;2.33;;;;;;;14.77;67.34;99683.72;4491712;31;33732;-64
2023/05/12 08:36:07;;;;;;;2.95;2.28;;;;;;;14.71;67.40;99690.53;4496036;31;34130;-63
2023/05/12 08:38:34;;;;;;;4.20;3.08;;;;;;;14.87;66.31;99692.66;4491078;31;34933;-64
2023/05/12 08:41:15;;;;;;;3.62;2.35;;;;;;;14.42;69.01;99693.19;4497383;31;33781;-63
2023/05/12 08:43:45;;;;;;;3.53;2.60;;;;;;;15.14;66.71;99694.56;4498672;31;34295;-63
2023/05/12 08:46:13;;;;;;;7.00;2.67;;;;;;;15.19;66.43;99700.41;4496367;31;32520;-63
2023/05/12 08:48:40;;;;;;;5.95;2.47;;;;;;;15.34;65.36;99695.38;4496515;31;33985;-63
2023/05/12 08:51:10;;;;;;;6.80;2.78;;;;;;;15.47;64.85;99700.44;4492150;31;33300;-63
2023/05/12 08:53:40;;;;;;;3.17;2.40;;;;;;;15.49;64.46;99693.91;4492685;31;33055;-63
2023/05/12 08:56:09;;;;;;;4.12;2.67;;;;;;;15.74;64.43;99702.38;4483853;31;33841;-62
2023/05/12 08:58:41;;;;;;;3.83;2.45;;;;;;;15.65;63.80;99693.28;4497517;31;32751;-61
2023/05/12 09:01:10;;;;;;;5.82;3.33;;;;;;;15.41;64.55;99698.31;4486787;31;33387;-62
2023/05/12 09:03:38;;;;;;;5.10;3.22;;;;;;;15.31;65.29;99706.44;4489461;31;33569;-63
2023/05/12 09:06:07;;;;;;;5.62;2.83;;;;;;;15.23;65.71;99703.66;4487126;31;33781;-63
2023/05/12 09:08:35;;;;;;;5.45;2.37;;;;;;;15.02;66.73;99710.06;4487970;31;33762;-64
2023/05/12 09:11:03;;;;;;;10.57;3.78;;;;;;;15.33;65.26;99710.69;4495053;31;33488;-64
2023/05/12 09:13:36;;;;;;;5.10;2.53;;;;;;;15.33;65.31;99715.25;4490032;31;33652;-63
2023/05/12 09:16:07;;;;;;;7.03;3.17;;;;;;;15.09;66.25;99719.28;4490619;31;33955;-63
2023/05/12 09:18:52;;;;;;;5.20;1.87;;;;;;;14.76;66.20;99715.19;4493172;31;34047;-63
2023/05/12 09:21:19;;;;;;;4.57;2.90;;;;;;;14.61;66.98;99719.31;4488235;31;33233;-64
2023/05/12 09:23:53;;;;;;;4.07;2.83;;;;;;;14.58;67.84;99723.12;4490148;31;32186;-63
2023/05/12 09:26:22;;;;;;;4.22;2.35;;;;;;;14.30;68.19;99718.53;4488297;31;34317;-64
2023/05/12 09:28:52;;;;;;;7.07;2.97;;;;;;;14.20;67.88;99729.28;4498914;31;33930;-62
2023/05/12 09:31:23;;;;;;;2.90;2.12;;;;;;;14.48;67.28;99733.03;4493516;31;33406;-65
2023/05/12 09:33:51;;;;;;;3.58;2.78;;;;;;;14.83;66.48;99727.13;4492687;31;33647;-63
2023/05/12 09:36:20;;;;;;;5.32;2.55;;;;;;;14.53;66.38;99729.94;4495595;31;33854;-66
2023/05/12 09:38:58;;;;;;;7.65;3.35;;;;;;;14.57;67.07;99732.19;4490419;31;33866;-64
2023/05/12 09:41:26;;;;;;;3.55;2.65;;;;;;;14.59;67.25;99730.22;4489702;31;33570;-62
2023/05/12 09:43:54;;;;;;;6.15;3.60;;;;;;;14.14;68.18;99741.44;4497456;31;34591;-63
2023/05/12 09:46:23;;;;;;;2.15;1.70;;;;;;;14.72;66.45;99739.88;4496728;31;33990;-63
2023/05/12 09:48:54;;;;;;;4.30;2.78;;;;;;;14.45;66.76;99733.28;4496639;31;34546;-63
2023/05/12 09:51:23;;;;;;;3.90;2.55;;;;;;;13.95;68.57;99738.69;4498288;31;33785;-62
2023/05/12 09:53:50;;;;;;;3.42;2.45;;;;;;;13.84;69.74;99747.72;4493874;31;33653;-63
2023/05/12 09:56:18;;;;;;;3.35;2.17;;;;;;;13.90;69.46;99744.50;4488004;31;34676;-63
2023/05/12 09:58:47;;;;;;;6.80;3.25;;;;;;;13.83;69.68;99742.47;4486179;31;34330;-63
2023/05/12 10:01:17;;;;;;;3.65;1.98;;;;;;;14.13;69.34;99742.44;4492332;31;34093;-63
2023/05/12 10:03:56;;;;;;;2.53;2.05;;;;;;;13.40;70.65;99736.31;4488778;31;34192;-65
2023/05/12 10:06:27;;;;;;;5.25;2.10;;;;;;;13.94;68.07;99731.63;4491123;31;35004;-63
2023/05/12 10:09:20;;;;;;;3.35;2.15;;;;;;;14.29;66.64;99733.00;4493153;31;34573;-63
2023/05/12 10:11:49;;;;;;;4.80;1.67;;;;;;;14.08;67.97;99730.38;4496706;31;33734;-64
2023/05/12 10:14:21;;;;;;;1.55;1.20;;;;;;;13.86;69.17;99737.66;4497119;31;33514;-64
2023/05/12 10:16:49;;;;;;;4.32;2.70;;;;;;;13.61;70.26;99738.12;4495869;31;33883;-64
2023/05/12 10:19:18;;;;;;;2.45;1.65;;;;;;;13.58;72.03;99739.25;4499320;31;33573;-65
2023/05/12 10:21:46;;;;;;;5.15;3.25;;;;;;;13.70;71.65;99730.09;4488746;31;33113;-64
2023/05/12 10:24:15;;;;;;;5.28;1.73;;;;;;;13.36;71.93;99729.50;4490681;31;33760;-63
2023/05/12 10:26:43;;;;;;;8.20;2.97;;;;;;;13.78;71.86;99729.44;4485153;31;33970;-64
2023/05/12 10:29:12;;;;;;;2.20;1.42;;;;;;;13.15;74.42;99736.69;4494492;31;35124;-64
2023/05/12 10:31:39;;;;;;;4.12;2.28;;;;;;;13.35;74.39;99729.63;4488413;31;33480;-62
2023/05/12 10:34:15;;;;;;;2.97;1.83;;;;;;;13.38;74.61;99726.69;4489688;31;33700;-63
2023/05/12 10:36:46;;;;;;;5.45;2.72;;;;;;;13.08;76.25;99735.53;4492666;31;34053;-62
2023/05/12 10:39:14;;;;;;;3.08;2.10;;;;;;;13.21;74.97;99734.34;4493597;31;33011;-63
2023/05/12 10:41:41;;;;;;;4.00;2.22;;;;;;;13.37;74.83;99738.44;4491550;31;32301;-62
2023/05/12 10:44:09;;;;;;;3.25;2.10;;;;;;;12.99;76.51;99753.28;4487846;31;33829;-63
2023/05/12 10:46:37;;;;;;;3.92;2.72;;;;;;;13.33;75.61;99745.91;4496811;31;33533;-62
2023/05/12 10:49:04;;;;;;;3.75;2.08;;;;;;;13.16;75.57;99736.59;4492243;31;34744;-62
2023/05/12 10:51:57;;;;;;;4.85;2.78;;;;;;;13.12;76.22;99745.88;4491106;31;33101;-63
2023/05/12 10:54:25;;;;;;;7.90;4.10;;;;;;;13.19;76.06;99739.00;4489015;31;33074;-63
2023/05/12 10:56:57;;;;;;;4.40;3.03;;;;;;;13.33;76.42;99740.53;4492853;31;34184;-62
2023/05/12 10:59:28;;;;;;;5.75;3.42;;;;;;;13.32;76.61;99735.28;4496773;31;33711;-63
2023/05/12 11:01:57;;;;;;;3.37;3.00;;;;;;;13.46;76.24;99743.84;4491453;31;32395;-62
2023/05/12 11:04:36;;;;;;;4.05;3.30;;;;;;;13.93;74.08;99746.91;4489347;31;33784;-62
2023/05/12 11:07:06;;;;;;;4.32;3.30;;;;;;;13.79;73.82;99749.94;4498466;31;33436;-63
2023/05/12 11:09:36;;;;;;;5.57;2.75;;;;;;;13.82;73.80;99752.38;4487161;31;33660;-62
2023/05/12 11:12:17;;;;;;;6.45;3.67;;;;;;;13.84;74.03;99755.78;4492836;31;34710;-63
2023/05/12 11:14:45;;;;;;;5.15;2.60;;;;;;;13.81;73.69;99753.38;4491388;31;33760;-63
2023/05/12 11:17:13;;;;;;;3.25;2.30;;;;;;;13.18;74.37;99749.87;4491661;31;34895;-63
2023/05/12 11:19:49;;;;;;;5.93;2.75;;;;;;;12.94;77.86;99747.44;4493835;31;35159;-63
2023/05/12 11:22:18;;;;;;;5.05;2.28;;;;;;;13.49;74.93;99737.38;4497543;31;33081;-62
2023/05/12 11:24:47;;;;;;;8.32;3.15;;;;;;;13.74;74.27;99739.63;4490851;31;32687;-63
2023/05/12 11:27:18;;;;;;;6.45;2.85;;;;;;;13.89;74.11;99748.16;4508422;31;34126;-62
2023/05/12 11:29:58;;;;;;;4.37;3.10;;;;;;;13.24;75.50;99747.53;4491983;31;34883;-62
2023/05/12 11:32:28;;;;;;;3.78;2.80;;;;;;;13.90;72.58;99747.19;4492290;31;33311;-63
2023/05/12 11:35:13;;;;;;;8.82;4.60;;;;;;;13.81;73.10;99752.53;4482873;31;33240;-64
2023/05/12 11:37:42;;;;;;;6.65;3.67;;;;;;;13.62;73.86;99742.53;4491505;31;34845;-63
2023/05/12 11:40:17;;;;;;;4.57;3.15;;;;;;;13.49;74.11;99740.06;4496004;31;34979;-63
2023/05/12 11:42:47;;;;;;;3.53;1.42;;;;;;;13.40;74.60;99739.00;4494526;31;33145;-62